sensor_id;sensor_type;location;lat;lon;timestamp;P1;durP1;ratioP1;P2;durP2;ratioP2
5630;SDS011;2837;50.990;7.124;2022-09-12T05:03:08;156.07;;;13.50;;
5630;SDS011;2837;50.990;7.124;2022-09-12T05:05:34;156.27;;;12.77;;
5630;SDS011;2837;50.990;7.124;2022-09-12T05:08:00;157.90;;;12.67;;
5630;SDS011;2837;50.990;7.124;2022-09-12T05:10:25;156.60;;;11.23;;
5630;SDS011;2837;50.990;7.124;2022-09-12T05:12:52;156.77;;;12.90;;
5630;SDS011;2837;50.990;7.124;2022-09-12T05:15:17;157.27;;;13.10;;
5630;SDS011;2837;50.990;7.124;2022-09-12T05:17:43;157.17;;;12.53;;
5630;SDS011;2837;50.990;7.124;2022-09-12T05:20:09;156.20;;;12.33;;
5630;SDS011;2837;50.990;7.124;2022-09-12T05:22:36;156.47;;;13.13;;
5630;SDS011;2837;50.990;7.124;2022-09-12T05:25:02;155.73;;;11.90;;
5630;SDS011;2837;50.990;7.124;2022-09-12T05:27:29;156.57;;;12.37;;
5630;SDS011;2837;50.990;7.124;2022-09-12T05:29:55;157.87;;;12.93;;
5630;SDS011;2837;50.990;7.124;2022-09-12T05:32:20;155.77;;;11.67;;
5630;SDS011;2837;50.990;7.124;2022-09-12T05:34:46;156.53;;;12.73;;
5630;SDS011;2837;50.990;7.124;2022-09-12T05:37:11;156.27;;;12.80;;
5630;SDS011;2837;50.990;7.124;2022-09-12T05:39:37;156.40;;;11.57;;
5630;SDS011;2837;50.990;7.124;2022-09-12T05:42:03;156.43;;;12.17;;
5630;SDS011;2837;50.990;7.124;2022-09-12T05:44:28;157.17;;;12.80;;
5630;SDS011;2837;50.990;7.124;2022-09-12T05:46:54;159.00;;;13.10;;
5630;SDS011;2837;50.990;7.124;2022-09-12T05:49:20;157.60;;;13.20;;
5630;SDS011;2837;50.990;7.124;2022-09-12T05:51:45;156.60;;;13.03;;
5630;SDS011;2837;50.990;7.124;2022-09-12T05:54:14;155.23;;;12.30;;
5630;SDS011;2837;50.990;7.124;2022-09-12T05:56:42;157.03;;;11.60;;
5630;SDS011;2837;50.990;7.124;2022-09-12T05:59:12;155.17;;;11.90;;
5630;SDS011;2837;50.990;7.124;2022-09-12T06:01:40;157.00;;;12.33;;
5630;SDS011;2837;50.990;7.124;2022-09-12T06:04:06;157.10;;;12.80;;
5630;SDS011;2837;50.990;7.124;2022-09-12T06:06:34;157.37;;;12.30;;
5630;SDS011;2837;50.990;7.124;2022-09-12T06:09:02;157.27;;;13.40;;
5630;SDS011;2837;50.990;7.124;2022-09-12T06:11:30;158.20;;;11.60;;
5630;SDS011;2837;50.990;7.124;2022-09-12T06:13:57;156.23;;;12.13;;
5630;SDS011;2837;50.990;7.124;2022-09-12T06:16:27;157.37;;;12.83;;
5630;SDS011;2837;50.990;7.124;2022-09-12T06:18:59;156.03;;;12.00;;
5630;SDS011;2837;50.990;7.124;2022-09-12T06:21:26;155.20;;;11.27;;
5630;SDS011;2837;50.990;7.124;2022-09-12T06:23:54;154.90;;;11.20;;
5630;SDS011;2837;50.990;7.124;2022-09-12T06:26:22;154.70;;;11.00;;
5630;SDS011;2837;50.990;7.124;2022-09-12T06:28:49;158.90;;;12.30;;
5630;SDS011;2837;50.990;7.124;2022-09-12T06:31:17;155.47;;;11.87;;
5630;SDS011;2837;50.990;7.124;2022-09-12T06:33:46;155.57;;;11.87;;
5630;SDS011;2837;50.990;7.124;2022-09-12T06:36:17;155.37;;;11.67;;
5630;SDS011;2837;50.990;7.124;2022-09-12T06:39:01;155.77;;;11.27;;
5630;SDS011;2837;50.990;7.124;2022-09-12T06:41:28;154.80;;;11.97;;
5630;SDS011;2837;50.990;7.124;2022-09-12T06:43:55;157.17;;;11.63;;
5630;SDS011;2837;50.990;7.124;2022-09-12T06:46:22;156.70;;;12.53;;
5630;SDS011;2837;50.990;7.124;2022-09-12T06:48:48;156.10;;;11.83;;
5630;SDS011;2837;50.990;7.124;2022-09-12T06:51:15;155.00;;;12.23;;
5630;SDS011;2837;50.990;7.124;2022-09-12T06:53:43;155.57;;;11.57;;
5630;SDS011;2837;50.990;7.124;2022-09-12T06:56:10;155.27;;;11.53;;
5630;SDS011;2837;50.990;7.124;2022-09-12T06:58:38;155.47;;;12.20;;
5630;SDS011;2837;50.990;7.124;2022-09-12T07:01:09;155.77;;;11.70;;
5630;SDS011;2837;50.990;7.124;2022-09-12T07:03:38;154.30;;;12.03;;
5630;SDS011;2837;50.990;7.124;2022-09-12T07:06:05;156.67;;;12.10;;
5630;SDS011;2837;50.990;7.124;2022-09-12T07:08:32;155.90;;;11.80;;
5630;SDS011;2837;50.990;7.124;2022-09-12T07:11:06;154.53;;;10.93;;
5630;SDS011;2837;50.990;7.124;2022-09-12T07:13:47;155.53;;;12.50;;
5630;SDS011;2837;50.990;7.124;2022-09-12T07:16:15;153.63;;;11.20;;
5630;SDS011;2837;50.990;7.124;2022-09-12T07:18:41;162.20;;;11.83;;
5630;SDS011;2837;50.990;7.124;2022-09-12T07:21:09;154.87;;;12.30;;
5630;SDS011;2837;50.990;7.124;2022-09-12T07:23:37;154.97;;;12.10;;
5630;SDS011;2837;50.990;7.124;2022-09-12T07:26:04;154.17;;;10.90;;
5630;SDS011;2837;50.990;7.124;2022-09-12T07:28:30;153.93;;;10.70;;
5630;SDS011;2837;50.990;7.124;2022-09-12T07:31:00;153.47;;;11.27;;
5630;SDS011;2837;50.990;7.124;2022-09-12T07:33:39;153.70;;;10.80;;
5630;SDS011;2837;50.990;7.124;2022-09-12T07:36:06;154.17;;;11.97;;
5630;SDS011;2837;50.990;7.124;2022-09-12T07:38:35;154.30;;;11.83;;
5630;SDS011;2837;50.990;7.124;2022-09-12T07:41:08;153.43;;;11.37;;
5630;SDS011;2837;50.990;7.124;2022-09-12T07:43:45;153.20;;;10.50;;
5630;SDS011;2837;50.990;7.124;2022-09-12T07:46:11;153.87;;;11.00;;
5630;SDS011;2837;50.990;7.124;2022-09-12T07:48:38;154.33;;;9.60;;
5630;SDS011;2837;50.990;7.124;2022-09-12T07:51:06;153.63;;;11.10;;
5630;SDS011;2837;50.990;7.124;2022-09-12T07:53:34;152.07;;;10.30;;
5630;SDS011;2837;50.990;7.124;2022-09-12T07:56:02;152.67;;;10.83;;
5630;SDS011;2837;50.990;7.124;2022-09-12T07:58:29;152.17;;;10.90;;
5630;SDS011;2837;50.990;7.124;2022-09-12T08:03:27;155.60;;;10.90;;
5630;SDS011;2837;50.990;7.124;2022-09-12T08:05:53;152.67;;;11.13;;
5630;SDS011;2837;50.990;7.124;2022-09-12T08:08:19;153.13;;;11.37;;
5630;SDS011;2837;50.990;7.124;2022-09-12T08:10:44;152.20;;;10.27;;
5630;SDS011;2837;50.990;7.124;2022-09-12T08:13:10;152.17;;;10.30;;
5630;SDS011;2837;50.990;7.124;2022-09-12T08:15:36;151.83;;;9.90;;
5630;SDS011;2837;50.990;7.124;2022-09-12T08:18:02;154.20;;;12.03;;
5630;SDS011;2837;50.990;7.124;2022-09-12T08:20:27;151.93;;;10.27;;
5630;SDS011;2837;50.990;7.124;2022-09-12T08:22:54;151.90;;;10.90;;
5630;SDS011;2837;50.990;7.124;2022-09-12T08:25:20;151.97;;;10.57;;
5630;SDS011;2837;50.990;7.124;2022-09-12T08:27:45;152.40;;;11.70;;
5630;SDS011;2837;50.990;7.124;2022-09-12T08:30:12;151.77;;;10.40;;
5630;SDS011;2837;50.990;7.124;2022-09-12T08:32:38;152.67;;;10.90;;
5630;SDS011;2837;50.990;7.124;2022-09-12T08:35:03;151.60;;;10.23;;
5630;SDS011;2837;50.990;7.124;2022-09-12T08:37:29;152.07;;;10.67;;
5630;SDS011;2837;50.990;7.124;2022-09-12T08:39:55;150.57;;;9.93;;
5630;SDS011;2837;50.990;7.124;2022-09-12T08:45:35;153.63;;;11.50;;
5630;SDS011;2837;50.990;7.124;2022-09-12T08:48:18;151.90;;;10.70;;
5630;SDS011;2837;50.990;7.124;2022-09-12T08:50:44;152.37;;;11.33;;
5630;SDS011;2837;50.990;7.124;2022-09-12T08:53:12;156.20;;;11.43;;
5630;SDS011;2837;50.990;7.124;2022-09-12T08:55:43;150.50;;;11.00;;
5630;SDS011;2837;50.990;7.124;2022-09-12T08:58:24;152.00;;;10.60;;
5630;SDS011;2837;50.990;7.124;2022-09-12T09:04:05;151.77;;;11.00;;
5630;SDS011;2837;50.990;7.124;2022-09-12T09:11:57;150.27;;;10.27;;
5630;SDS011;2837;50.990;7.124;2022-09-12T09:17:14;150.47;;;10.37;;
5630;SDS011;2837;50.990;7.124;2022-09-12T09:19:43;151.77;;;11.80;;
5630;SDS011;2837;50.990;7.124;2022-09-12T09:22:15;149.50;;;10.50;;
5630;SDS011;2837;50.990;7.124;2022-09-12T09:24:54;151.13;;;10.90;;
5630;SDS011;2837;50.990;7.124;2022-09-12T09:29:54;153.17;;;11.23;;
5630;SDS011;2837;50.990;7.124;2022-09-12T09:32:27;151.37;;;10.60;;
5630;SDS011;2837;50.990;7.124;2022-09-12T09:34:59;153.07;;;11.23;;
5630;SDS011;2837;50.990;7.124;2022-09-12T09:45:39;151.07;;;11.30;;
5630;SDS011;2837;50.990;7.124;2022-09-12T09:50:55;154.03;;;12.20;;
5630;SDS011;2837;50.990;7.124;2022-09-12T09:55:51;149.20;;;10.17;;
5630;SDS011;2837;50.990;7.124;2022-09-12T09:58:29;150.80;;;11.77;;
5630;SDS011;2837;50.990;7.124;2022-09-12T10:01:04;150.13;;;10.90;;
5630;SDS011;2837;50.990;7.124;2022-09-12T10:03:39;150.43;;;11.73;;
5630;SDS011;2837;50.990;7.124;2022-09-12T10:06:30;150.07;;;11.10;;
5630;SDS011;2837;50.990;7.124;2022-09-12T10:09:04;151.87;;;11.47;;
5630;SDS011;2837;50.990;7.124;2022-09-12T10:11:51;148.80;;;10.10;;
5630;SDS011;2837;50.990;7.124;2022-09-12T10:16:52;151.53;;;11.80;;
5630;SDS011;2837;50.990;7.124;2022-09-12T10:19:22;150.47;;;10.93;;
5630;SDS011;2837;50.990;7.124;2022-09-12T10:21:58;150.53;;;11.17;;
5630;SDS011;2837;50.990;7.124;2022-09-12T10:24:26;150.87;;;10.93;;
5630;SDS011;2837;50.990;7.124;2022-09-12T10:26:56;149.87;;;10.50;;
5630;SDS011;2837;50.990;7.124;2022-09-12T10:29:31;150.27;;;10.40;;
5630;SDS011;2837;50.990;7.124;2022-09-12T10:32:00;149.67;;;10.70;;
5630;SDS011;2837;50.990;7.124;2022-09-12T10:34:33;152.10;;;10.80;;
5630;SDS011;2837;50.990;7.124;2022-09-12T10:37:04;149.63;;;10.07;;
5630;SDS011;2837;50.990;7.124;2022-09-12T10:39:32;149.37;;;10.37;;
5630;SDS011;2837;50.990;7.124;2022-09-12T10:42:02;150.97;;;10.97;;
5630;SDS011;2837;50.990;7.124;2022-09-12T10:44:29;150.80;;;10.40;;
5630;SDS011;2837;50.990;7.124;2022-09-12T10:46:57;151.57;;;10.20;;
5630;SDS011;2837;50.990;7.124;2022-09-12T10:49:26;149.07;;;9.80;;
5630;SDS011;2837;50.990;7.124;2022-09-12T10:51:56;150.50;;;10.83;;
5630;SDS011;2837;50.990;7.124;2022-09-12T10:54:40;150.80;;;10.80;;
5630;SDS011;2837;50.990;7.124;2022-09-12T11:00:20;151.23;;;10.20;;
5630;SDS011;2837;50.990;7.124;2022-09-12T11:08:36;150.97;;;10.70;;
5630;SDS011;2837;50.990;7.124;2022-09-12T11:11:11;150.00;;;10.67;;
5630;SDS011;2837;50.990;7.124;2022-09-12T11:13:58;149.33;;;9.73;;
5630;SDS011;2837;50.990;7.124;2022-09-12T11:19:51;148.87;;;9.60;;
5630;SDS011;2837;50.990;7.124;2022-09-12T11:22:46;149.00;;;9.13;;
5630;SDS011;2837;50.990;7.124;2022-09-12T11:28:30;150.50;;;10.87;;
5630;SDS011;2837;50.990;7.124;2022-09-12T11:31:02;148.80;;;9.83;;
5630;SDS011;2837;50.990;7.124;2022-09-12T11:33:45;149.37;;;10.07;;
5630;SDS011;2837;50.990;7.124;2022-09-12T11:38:48;148.67;;;9.70;;
5630;SDS011;2837;50.990;7.124;2022-09-12T11:41:25;149.40;;;9.80;;
5630;SDS011;2837;50.990;7.124;2022-09-12T11:44:11;149.17;;;9.43;;
5630;SDS011;2837;50.990;7.124;2022-09-12T11:46:46;148.90;;;9.40;;
5630;SDS011;2837;50.990;7.124;2022-09-12T11:49:28;150.50;;;9.77;;
5630;SDS011;2837;50.990;7.124;2022-09-12T11:52:04;148.60;;;9.10;;
5630;SDS011;2837;50.990;7.124;2022-09-12T12:02:26;149.10;;;9.83;;
5630;SDS011;2837;50.990;7.124;2022-09-12T12:04:58;148.37;;;9.77;;
5630;SDS011;2837;50.990;7.124;2022-09-12T12:07:42;149.47;;;9.40;;
5630;SDS011;2837;50.990;7.124;2022-09-12T12:10:21;148.03;;;9.33;;
5630;SDS011;2837;50.990;7.124;2022-09-12T12:13:00;149.00;;;9.77;;
5630;SDS011;2837;50.990;7.124;2022-09-12T12:15:33;147.77;;;8.70;;
5630;SDS011;2837;50.990;7.124;2022-09-12T12:18:02;148.00;;;9.67;;
5630;SDS011;2837;50.990;7.124;2022-09-12T12:20:30;147.97;;;8.83;;
5630;SDS011;2837;50.990;7.124;2022-09-12T12:22:56;147.67;;;8.87;;
5630;SDS011;2837;50.990;7.124;2022-09-12T12:25:25;147.37;;;8.97;;
5630;SDS011;2837;50.990;7.124;2022-09-12T12:28:01;146.97;;;8.43;;
5630;SDS011;2837;50.990;7.124;2022-09-12T12:32:58;146.60;;;8.60;;
5630;SDS011;2837;50.990;7.124;2022-09-12T12:35:41;147.07;;;8.77;;
5630;SDS011;2837;50.990;7.124;2022-09-12T12:38:29;148.47;;;9.40;;
5630;SDS011;2837;50.990;7.124;2022-09-12T12:43:41;149.30;;;8.77;;
5630;SDS011;2837;50.990;7.124;2022-09-12T12:46:11;146.73;;;8.50;;
5630;SDS011;2837;50.990;7.124;2022-09-12T12:51:33;146.27;;;8.50;;
5630;SDS011;2837;50.990;7.124;2022-09-12T12:54:05;147.27;;;9.00;;
5630;SDS011;2837;50.990;7.124;2022-09-12T12:57:30;147.07;;;8.60;;
5630;SDS011;2837;50.990;7.124;2022-09-12T13:05:52;147.07;;;8.50;;
5630;SDS011;2837;50.990;7.124;2022-09-12T13:08:27;147.63;;;9.30;;
5630;SDS011;2837;50.990;7.124;2022-09-12T13:11:04;147.17;;;9.53;;
5630;SDS011;2837;50.990;7.124;2022-09-12T13:13:36;146.67;;;8.50;;
5630;SDS011;2837;50.990;7.124;2022-09-12T13:16:07;146.60;;;8.73;;
5630;SDS011;2837;50.990;7.124;2022-09-12T13:18:40;149.30;;;8.77;;
5630;SDS011;2837;50.990;7.124;2022-09-12T13:23:43;147.77;;;9.83;;
5630;SDS011;2837;50.990;7.124;2022-09-12T13:26:10;146.17;;;8.27;;
5630;SDS011;2837;50.990;7.124;2022-09-12T13:28:37;146.83;;;8.77;;
5630;SDS011;2837;50.990;7.124;2022-09-12T13:31:19;145.93;;;8.27;;
5630;SDS011;2837;50.990;7.124;2022-09-12T13:33:53;147.70;;;8.20;;
5630;SDS011;2837;50.990;7.124;2022-09-12T13:43:03;147.60;;;8.87;;
5630;SDS011;2837;50.990;7.124;2022-09-12T13:45:39;146.47;;;8.40;;
5630;SDS011;2837;50.990;7.124;2022-09-12T13:48:09;147.27;;;8.20;;
5630;SDS011;2837;50.990;7.124;2022-09-12T13:50:50;147.07;;;9.07;;
5630;SDS011;2837;50.990;7.124;2022-09-12T13:53:17;145.67;;;8.00;;
5630;SDS011;2837;50.990;7.124;2022-09-12T13:55:46;145.53;;;7.60;;
5630;SDS011;2837;50.990;7.124;2022-09-12T14:03:50;147.37;;;9.33;;
5630;SDS011;2837;50.990;7.124;2022-09-12T14:06:51;146.47;;;8.73;;
5630;SDS011;2837;50.990;7.124;2022-09-12T14:09:21;145.90;;;8.07;;
5630;SDS011;2837;50.990;7.124;2022-09-12T14:11:49;147.10;;;7.97;;
5630;SDS011;2837;50.990;7.124;2022-09-12T14:14:35;145.73;;;8.10;;
5630;SDS011;2837;50.990;7.124;2022-09-12T14:17:16;146.10;;;8.57;;
5630;SDS011;2837;50.990;7.124;2022-09-12T14:19:44;146.47;;;8.77;;
5630;SDS011;2837;50.990;7.124;2022-09-12T14:22:11;147.47;;;9.20;;
5630;SDS011;2837;50.990;7.124;2022-09-12T14:24:43;146.60;;;8.50;;
5630;SDS011;2837;50.990;7.124;2022-09-12T14:27:15;145.53;;;8.77;;
5630;SDS011;2837;50.990;7.124;2022-09-12T14:29:43;145.47;;;8.83;;
5630;SDS011;2837;50.990;7.124;2022-09-12T14:32:17;145.73;;;8.63;;
5630;SDS011;2837;50.990;7.124;2022-09-12T14:35:03;145.83;;;8.13;;
5630;SDS011;2837;50.990;7.124;2022-09-12T14:37:30;147.07;;;9.60;;
5630;SDS011;2837;50.990;7.124;2022-09-12T14:39:56;146.07;;;8.17;;
5630;SDS011;2837;50.990;7.124;2022-09-12T14:42:24;145.87;;;9.03;;
5630;SDS011;2837;50.990;7.124;2022-09-12T14:44:54;145.57;;;8.53;;
5630;SDS011;2837;50.990;7.124;2022-09-12T14:47:23;146.50;;;8.97;;
5630;SDS011;2837;50.990;7.124;2022-09-12T14:49:50;145.70;;;8.63;;
5630;SDS011;2837;50.990;7.124;2022-09-12T14:52:26;145.60;;;8.73;;
5630;SDS011;2837;50.990;7.124;2022-09-12T14:54:55;146.80;;;9.13;;
5630;SDS011;2837;50.990;7.124;2022-09-12T14:57:30;145.90;;;8.77;;
5630;SDS011;2837;50.990;7.124;2022-09-12T15:02:45;146.10;;;8.87;;
5630;SDS011;2837;50.990;7.124;2022-09-12T15:07:50;145.77;;;8.40;;
5630;SDS011;2837;50.990;7.124;2022-09-12T15:10:25;147.00;;;9.10;;
5630;SDS011;2837;50.990;7.124;2022-09-12T15:15:38;145.40;;;8.40;;
5630;SDS011;2837;50.990;7.124;2022-09-12T15:18:06;146.53;;;8.73;;
5630;SDS011;2837;50.990;7.124;2022-09-12T15:20:33;149.77;;;9.43;;
5630;SDS011;2837;50.990;7.124;2022-09-12T15:23:01;146.07;;;8.17;;
5630;SDS011;2837;50.990;7.124;2022-09-12T15:25:26;146.67;;;9.60;;
5630;SDS011;2837;50.990;7.124;2022-09-12T15:27:52;146.20;;;8.40;;
5630;SDS011;2837;50.990;7.124;2022-09-12T15:30:19;145.53;;;7.97;;
5630;SDS011;2837;50.990;7.124;2022-09-12T15:32:45;146.50;;;8.87;;
5630;SDS011;2837;50.990;7.124;2022-09-12T15:35:15;146.13;;;8.50;;
5630;SDS011;2837;50.990;7.124;2022-09-12T15:37:42;145.87;;;8.90;;
5630;SDS011;2837;50.990;7.124;2022-09-12T15:40:08;146.17;;;9.00;;
5630;SDS011;2837;50.990;7.124;2022-09-12T15:42:35;146.23;;;9.40;;
5630;SDS011;2837;50.990;7.124;2022-09-12T15:45:01;145.20;;;8.50;;
5630;SDS011;2837;50.990;7.124;2022-09-12T15:47:28;146.50;;;9.50;;
5630;SDS011;2837;50.990;7.124;2022-09-12T15:49:54;146.43;;;8.97;;
5630;SDS011;2837;50.990;7.124;2022-09-12T15:52:20;147.23;;;9.43;;
5630;SDS011;2837;50.990;7.124;2022-09-12T15:54:45;146.40;;;8.77;;
5630;SDS011;2837;50.990;7.124;2022-09-12T15:57:11;146.77;;;9.67;;
5630;SDS011;2837;50.990;7.124;2022-09-12T15:59:36;146.20;;;8.37;;
5630;SDS011;2837;50.990;7.124;2022-09-12T16:02:02;146.90;;;9.20;;
5630;SDS011;2837;50.990;7.124;2022-09-12T16:04:28;146.60;;;9.30;;
5630;SDS011;2837;50.990;7.124;2022-09-12T16:06:55;146.90;;;8.77;;
5630;SDS011;2837;50.990;7.124;2022-09-12T16:09:21;145.73;;;9.00;;
5630;SDS011;2837;50.990;7.124;2022-09-12T16:11:47;147.10;;;9.13;;
5630;SDS011;2837;50.990;7.124;2022-09-12T16:14:14;146.07;;;8.63;;
5630;SDS011;2837;50.990;7.124;2022-09-12T16:16:41;147.57;;;9.07;;
5630;SDS011;2837;50.990;7.124;2022-09-12T16:19:08;146.17;;;8.63;;
5630;SDS011;2837;50.990;7.124;2022-09-12T16:21:35;145.70;;;8.10;;
5630;SDS011;2837;50.990;7.124;2022-09-12T16:24:01;145.93;;;8.80;;
5630;SDS011;2837;50.990;7.124;2022-09-12T16:26:26;146.97;;;9.10;;
5630;SDS011;2837;50.990;7.124;2022-09-12T16:28:55;146.77;;;9.37;;
5630;SDS011;2837;50.990;7.124;2022-09-12T16:31:22;147.37;;;9.47;;
5630;SDS011;2837;50.990;7.124;2022-09-12T16:33:48;147.17;;;8.70;;
5630;SDS011;2837;50.990;7.124;2022-09-12T16:36:15;145.17;;;9.17;;
5630;SDS011;2837;50.990;7.124;2022-09-12T16:38:47;146.60;;;9.17;;
5630;SDS011;2837;50.990;7.124;2022-09-12T16:41:14;147.17;;;8.77;;
5630;SDS011;2837;50.990;7.124;2022-09-12T16:43:41;146.47;;;8.73;;
5630;SDS011;2837;50.990;7.124;2022-09-12T16:46:08;146.57;;;8.90;;
5630;SDS011;2837;50.990;7.124;2022-09-12T16:48:35;147.20;;;9.20;;
5630;SDS011;2837;50.990;7.124;2022-09-12T16:51:05;148.17;;;8.67;;
5630;SDS011;2837;50.990;7.124;2022-09-12T16:53:31;146.77;;;8.83;;
5630;SDS011;2837;50.990;7.124;2022-09-12T16:56:01;147.67;;;9.77;;
5630;SDS011;2837;50.990;7.124;2022-09-12T16:58:27;146.97;;;9.37;;
5630;SDS011;2837;50.990;7.124;2022-09-12T17:01:03;147.00;;;8.90;;
5630;SDS011;2837;50.990;7.124;2022-09-12T17:03:31;146.20;;;8.07;;
5630;SDS011;2837;50.990;7.124;2022-09-12T17:05:59;147.20;;;9.40;;
5630;SDS011;2837;50.990;7.124;2022-09-12T17:08:26;146.80;;;8.93;;
5630;SDS011;2837;50.990;7.124;2022-09-12T17:10:53;147.10;;;9.10;;
5630;SDS011;2837;50.990;7.124;2022-09-12T17:13:24;147.40;;;9.27;;
5630;SDS011;2837;50.990;7.124;2022-09-12T17:15:49;147.57;;;9.57;;
5630;SDS011;2837;50.990;7.124;2022-09-12T17:18:15;146.97;;;9.37;;
5630;SDS011;2837;50.990;7.124;2022-09-12T17:20:40;146.57;;;9.13;;
5630;SDS011;2837;50.990;7.124;2022-09-12T17:23:06;146.90;;;8.97;;
5630;SDS011;2837;50.990;7.124;2022-09-12T17:25:32;146.87;;;8.93;;
5630;SDS011;2837;50.990;7.124;2022-09-12T17:27:57;147.53;;;9.77;;
5630;SDS011;2837;50.990;7.124;2022-09-12T17:30:23;148.97;;;9.27;;
5630;SDS011;2837;50.990;7.124;2022-09-12T17:32:50;147.40;;;9.27;;
5630;SDS011;2837;50.990;7.124;2022-09-12T17:35:16;148.73;;;9.30;;
5630;SDS011;2837;50.990;7.124;2022-09-12T17:37:42;147.67;;;8.50;;
5630;SDS011;2837;50.990;7.124;2022-09-12T17:40:07;148.90;;;10.07;;
5630;SDS011;2837;50.990;7.124;2022-09-12T17:42:33;147.80;;;9.03;;
5630;SDS011;2837;50.990;7.124;2022-09-12T17:45:00;146.47;;;9.03;;
5630;SDS011;2837;50.990;7.124;2022-09-12T17:47:26;147.57;;;8.80;;
5630;SDS011;2837;50.990;7.124;2022-09-12T17:49:52;149.70;;;9.00;;
5630;SDS011;2837;50.990;7.124;2022-09-12T17:52:17;149.40;;;9.50;;
5630;SDS011;2837;50.990;7.124;2022-09-12T17:54:43;147.80;;;9.03;;
5630;SDS011;2837;50.990;7.124;2022-09-12T17:57:09;147.20;;;9.00;;
5630;SDS011;2837;50.990;7.124;2022-09-12T17:59:35;147.00;;;9.40;;
5630;SDS011;2837;50.990;7.124;2022-09-12T18:02:00;146.33;;;8.90;;
5630;SDS011;2837;50.990;7.124;2022-09-12T18:04:42;147.03;;;9.00;;
5630;SDS011;2837;50.990;7.124;2022-09-12T18:07:12;148.50;;;9.60;;
5630;SDS011;2837;50.990;7.124;2022-09-12T18:09:42;147.37;;;8.70;;
5630;SDS011;2837;50.990;7.124;2022-09-12T18:12:11;147.10;;;8.30;;
5630;SDS011;2837;50.990;7.124;2022-09-12T18:14:38;147.37;;;8.03;;
5630;SDS011;2837;50.990;7.124;2022-09-12T18:17:05;147.57;;;9.00;;
5630;SDS011;2837;50.990;7.124;2022-09-12T18:19:32;148.57;;;8.57;;
5630;SDS011;2837;50.990;7.124;2022-09-12T18:21:59;147.20;;;8.40;;
5630;SDS011;2837;50.990;7.124;2022-09-12T18:24:25;147.37;;;8.70;;
5630;SDS011;2837;50.990;7.124;2022-09-12T18:26:51;147.20;;;9.30;;
5630;SDS011;2837;50.990;7.124;2022-09-12T18:29:16;147.83;;;9.30;;
5630;SDS011;2837;50.990;7.124;2022-09-12T18:31:44;147.90;;;8.87;;
5630;SDS011;2837;50.990;7.124;2022-09-12T18:34:13;148.00;;;9.30;;
5630;SDS011;2837;50.990;7.124;2022-09-12T18:36:41;147.87;;;9.17;;
5630;SDS011;2837;50.990;7.124;2022-09-12T18:39:08;148.40;;;9.17;;
5630;SDS011;2837;50.990;7.124;2022-09-12T18:41:34;149.13;;;9.07;;
5630;SDS011;2837;50.990;7.124;2022-09-12T18:44:01;148.17;;;8.93;;
5630;SDS011;2837;50.990;7.124;2022-09-12T18:46:27;151.27;;;8.43;;
5630;SDS011;2837;50.990;7.124;2022-09-12T18:48:54;149.97;;;8.53;;
5630;SDS011;2837;50.990;7.124;2022-09-12T18:51:22;147.63;;;8.67;;
5630;SDS011;2837;50.990;7.124;2022-09-12T18:56:20;147.67;;;8.60;;
5630;SDS011;2837;50.990;7.124;2022-09-12T18:58:54;147.57;;;9.00;;
5630;SDS011;2837;50.990;7.124;2022-09-12T19:01:21;147.23;;;8.67;;
5630;SDS011;2837;50.990;7.124;2022-09-12T19:03:49;148.10;;;8.57;;
5630;SDS011;2837;50.990;7.124;2022-09-12T19:06:17;149.30;;;9.00;;
5630;SDS011;2837;50.990;7.124;2022-09-12T19:08:45;147.80;;;8.40;;
5630;SDS011;2837;50.990;7.124;2022-09-12T19:11:11;153.40;;;8.93;;
5630;SDS011;2837;50.990;7.124;2022-09-12T19:13:38;147.97;;;8.57;;
5630;SDS011;2837;50.990;7.124;2022-09-12T19:16:06;147.97;;;8.90;;
5630;SDS011;2837;50.990;7.124;2022-09-12T19:18:34;148.50;;;9.20;;
5630;SDS011;2837;50.990;7.124;2022-09-12T19:21:01;149.00;;;9.13;;
5630;SDS011;2837;50.990;7.124;2022-09-12T19:23:29;147.40;;;8.30;;
5630;SDS011;2837;50.990;7.124;2022-09-12T19:25:57;147.40;;;8.87;;
5630;SDS011;2837;50.990;7.124;2022-09-12T19:28:28;148.47;;;9.10;;
5630;SDS011;2837;50.990;7.124;2022-09-12T19:30:54;148.13;;;9.77;;
5630;SDS011;2837;50.990;7.124;2022-09-12T19:33:20;148.40;;;9.50;;
5630;SDS011;2837;50.990;7.124;2022-09-12T19:35:46;148.07;;;9.37;;
5630;SDS011;2837;50.990;7.124;2022-09-12T19:38:12;147.83;;;8.67;;
5630;SDS011;2837;50.990;7.124;2022-09-12T19:40:38;147.77;;;8.80;;
5630;SDS011;2837;50.990;7.124;2022-09-12T19:43:07;147.67;;;8.80;;
5630;SDS011;2837;50.990;7.124;2022-09-12T19:45:33;149.70;;;8.77;;
5630;SDS011;2837;50.990;7.124;2022-09-12T19:47:58;149.27;;;9.60;;
5630;SDS011;2837;50.990;7.124;2022-09-12T19:50:24;148.90;;;9.40;;
5630;SDS011;2837;50.990;7.124;2022-09-12T19:52:50;148.87;;;9.10;;
5630;SDS011;2837;50.990;7.124;2022-09-12T19:55:16;147.97;;;8.77;;
5630;SDS011;2837;50.990;7.124;2022-09-12T19:57:41;149.43;;;9.30;;
5630;SDS011;2837;50.990;7.124;2022-09-12T20:00:07;148.60;;;9.30;;
5630;SDS011;2837;50.990;7.124;2022-09-12T20:02:34;149.37;;;9.60;;
5630;SDS011;2837;50.990;7.124;2022-09-12T20:04:59;148.10;;;8.93;;
5630;SDS011;2837;50.990;7.124;2022-09-12T20:07:25;148.30;;;8.90;;
5630;SDS011;2837;50.990;7.124;2022-09-12T20:09:51;148.70;;;9.53;;
5630;SDS011;2837;50.990;7.124;2022-09-12T20:12:16;148.17;;;8.90;;
5630;SDS011;2837;50.990;7.124;2022-09-12T20:14:42;151.13;;;8.80;;
5630;SDS011;2837;50.990;7.124;2022-09-12T20:17:08;148.77;;;9.30;;
5630;SDS011;2837;50.990;7.124;2022-09-12T20:19:33;148.77;;;9.17;;
5630;SDS011;2837;50.990;7.124;2022-09-12T20:21:59;148.57;;;9.60;;
5630;SDS011;2837;50.990;7.124;2022-09-12T20:24:24;149.03;;;8.70;;
5630;SDS011;2837;50.990;7.124;2022-09-12T20:26:50;150.77;;;9.80;;
5630;SDS011;2837;50.990;7.124;2022-09-12T20:29:16;148.07;;;8.77;;
5630;SDS011;2837;50.990;7.124;2022-09-12T20:31:42;149.40;;;9.20;;
5630;SDS011;2837;50.990;7.124;2022-09-12T20:34:13;148.07;;;8.60;;
5630;SDS011;2837;50.990;7.124;2022-09-12T20:36:40;148.03;;;9.20;;
5630;SDS011;2837;50.990;7.124;2022-09-12T20:39:06;149.00;;;9.60;;
5630;SDS011;2837;50.990;7.124;2022-09-12T20:41:32;149.37;;;9.83;;
5630;SDS011;2837;50.990;7.124;2022-09-12T20:43:59;148.90;;;8.83;;
5630;SDS011;2837;50.990;7.124;2022-09-12T20:46:26;148.10;;;9.50;;
5630;SDS011;2837;50.990;7.124;2022-09-12T20:48:52;148.67;;;9.63;;
5630;SDS011;2837;50.990;7.124;2022-09-12T20:51:18;148.80;;;8.60;;
5630;SDS011;2837;50.990;7.124;2022-09-12T20:53:45;148.87;;;9.47;;
5630;SDS011;2837;50.990;7.124;2022-09-12T20:56:11;154.27;;;9.67;;
5630;SDS011;2837;50.990;7.124;2022-09-12T20:58:38;149.07;;;9.17;;
